createdAt,value
2022-10-18T00:00:45.443Z,16.10
2022-10-18T00:03:11.852Z,16.10
2022-10-18T00:05:38.260Z,16.10
2022-10-18T00:08:04.981Z,16.10
2022-10-18T00:10:31.545Z,16.10
2022-10-18T00:12:58.062Z,16.10
2022-10-18T00:15:24.737Z,16.10
2022-10-18T00:17:51.157Z,16.10
2022-10-18T00:20:17.583Z,16.10
2022-10-18T00:22:44.029Z,16.10
2022-10-18T00:25:10.551Z,16.10
2022-10-18T00:27:36.987Z,16.10
2022-10-18T00:30:04.113Z,16.10
2022-10-18T00:32:30.794Z,16.10
2022-10-18T00:34:57.333Z,16.10
2022-10-18T00:37:23.747Z,16.10
2022-10-18T00:39:50.298Z,16.10
2022-10-18T00:42:18.130Z,16.00
2022-10-18T00:44:44.637Z,16.00
2022-10-18T00:47:12.309Z,16.00
2022-10-18T00:49:47.407Z,16.00
2022-10-18T00:52:16.956Z,16.00
2022-10-18T00:54:44.697Z,16.00
2022-10-18T00:57:11.858Z,16.00
2022-10-18T00:59:38.417Z,16.00
2022-10-18T01:02:05.927Z,16.00
2022-10-18T01:04:32.546Z,16.00
2022-10-18T01:07:05.065Z,16.00
2022-10-18T01:09:43.818Z,16.00
2022-10-18T01:12:13.347Z,16.00
2022-10-18T01:14:48.890Z,16.00
2022-10-18T01:17:19.929Z,16.00
2022-10-18T01:20:04.863Z,15.90
2022-10-18T01:22:45.279Z,15.90
2022-10-18T01:25:30.886Z,15.90
2022-10-18T01:28:03.276Z,15.90
2022-10-18T01:30:36.382Z,15.90
2022-10-18T01:33:05.468Z,15.90
2022-10-18T01:35:33.807Z,15.90
2022-10-18T01:38:02.184Z,15.90
2022-10-18T01:40:29.599Z,15.90
2022-10-18T01:42:56.087Z,15.90
2022-10-18T01:45:23.587Z,15.90
2022-10-18T01:47:50.921Z,15.90
2022-10-18T01:50:27.529Z,15.90
2022-10-18T01:52:53.951Z,15.90
2022-10-18T01:55:24.959Z,15.90
2022-10-18T01:58:04.841Z,15.90
2022-10-18T02:00:42.314Z,15.90
2022-10-18T02:03:25.825Z,15.90
2022-10-18T02:05:58.528Z,15.90
2022-10-18T02:08:39.181Z,15.90
2022-10-18T02:11:08.628Z,15.90
2022-10-18T02:13:42.816Z,15.90
2022-10-18T02:16:16.135Z,15.90
2022-10-18T02:18:47.002Z,15.90
2022-10-18T02:21:15.788Z,15.90
2022-10-18T02:23:43.618Z,15.90
2022-10-18T02:26:13.941Z,15.90
2022-10-18T02:28:40.506Z,15.80
2022-10-18T02:31:20.522Z,15.90
2022-10-18T02:34:05.853Z,15.80
2022-10-18T02:36:35.931Z,15.80
2022-10-18T02:39:04.464Z,15.80
2022-10-18T02:41:31.061Z,15.80
2022-10-18T02:43:57.539Z,15.80
2022-10-18T02:46:24.026Z,15.80
2022-10-18T02:48:50.563Z,15.80
2022-10-18T02:51:17.008Z,15.80
2022-10-18T02:53:43.502Z,15.80
2022-10-18T02:56:09.891Z,15.80
2022-10-18T02:58:36.351Z,15.80
2022-10-18T03:01:02.813Z,15.80
2022-10-18T03:03:29.246Z,15.80
2022-10-18T03:05:55.642Z,15.80
2022-10-18T03:08:22.768Z,15.80
2022-10-18T03:10:49.225Z,15.80
2022-10-18T03:13:15.952Z,15.80
2022-10-18T03:15:42.675Z,15.80
2022-10-18T03:18:09.241Z,15.80
2022-10-18T03:20:35.747Z,15.80
2022-10-18T03:23:03.295Z,15.80
2022-10-18T03:25:29.777Z,15.80
2022-10-18T03:27:56.171Z,15.70
2022-10-18T03:30:22.615Z,15.70
2022-10-18T03:32:49.033Z,15.70
2022-10-18T03:35:15.651Z,15.70
2022-10-18T03:37:42.134Z,15.70
2022-10-18T03:40:08.984Z,15.70
2022-10-18T03:42:35.539Z,15.70
2022-10-18T03:45:01.981Z,15.70
2022-10-18T03:47:28.353Z,15.70
2022-10-18T03:49:57.147Z,15.70
2022-10-18T03:52:23.945Z,15.70
2022-10-18T03:54:50.359Z,15.70
2022-10-18T03:57:16.800Z,15.70
2022-10-18T03:59:43.560Z,15.70
2022-10-18T04:02:09.972Z,15.60
2022-10-18T04:04:36.477Z,15.70
2022-10-18T04:07:02.949Z,15.60
2022-10-18T04:09:29.353Z,15.60
2022-10-18T04:11:55.791Z,15.60
2022-10-18T04:14:22.244Z,15.60
2022-10-18T04:16:48.664Z,15.60
2022-10-18T04:19:15.134Z,15.60
2022-10-18T04:21:41.546Z,15.60
2022-10-18T04:24:08.013Z,15.60
2022-10-18T04:26:34.477Z,15.60
2022-10-18T04:29:01.009Z,15.50
2022-10-18T04:31:27.477Z,15.50
2022-10-18T04:33:54.118Z,15.50
2022-10-18T04:36:20.545Z,15.50
2022-10-18T04:38:47.092Z,15.50
2022-10-18T04:41:13.515Z,15.40
2022-10-18T04:43:39.944Z,15.50
2022-10-18T04:46:06.500Z,15.40
2022-10-18T04:48:32.917Z,15.40
2022-10-18T04:50:59.407Z,15.40
2022-10-18T04:53:25.825Z,15.40
2022-10-18T04:55:52.299Z,15.40
2022-10-18T04:58:18.773Z,15.40
2022-10-18T05:00:45.442Z,15.30
2022-10-18T05:03:13.047Z,15.30
2022-10-18T05:06:00.243Z,15.30
2022-10-18T05:08:26.197Z,15.30
2022-10-18T05:10:52.682Z,15.30
2022-10-18T05:13:19.233Z,15.30
2022-10-18T05:15:48.527Z,15.30
2022-10-18T05:18:15.024Z,15.30
2022-10-18T05:20:41.420Z,15.20
2022-10-18T05:23:10.829Z,15.20
2022-10-18T05:25:43.885Z,15.20
2022-10-18T05:28:34.694Z,15.20
2022-10-18T05:31:00.377Z,15.20
2022-10-18T05:33:26.800Z,15.20
2022-10-18T05:35:53.266Z,15.10
2022-10-18T05:38:19.709Z,15.10
2022-10-18T05:40:46.126Z,15.10
2022-10-18T05:43:12.630Z,15.10
2022-10-18T05:45:39.033Z,15.10
2022-10-18T05:48:07.571Z,15.00
2022-10-18T05:50:36.713Z,15.00
2022-10-18T05:53:12.053Z,15.00
2022-10-18T05:55:44.894Z,14.90
2022-10-18T05:58:11.279Z,14.90
2022-10-18T06:00:38.686Z,14.90
2022-10-18T06:03:05.150Z,14.90
2022-10-18T06:05:31.648Z,14.90
2022-10-18T06:07:58.181Z,14.80
2022-10-18T06:10:24.646Z,14.80
2022-10-18T06:12:51.322Z,14.80
2022-10-18T06:15:17.846Z,14.80
2022-10-18T06:17:44.274Z,14.80
2022-10-18T06:20:10.745Z,14.80
2022-10-18T06:22:37.132Z,14.70
2022-10-18T06:25:03.687Z,14.70
2022-10-18T06:27:31.960Z,14.70
2022-10-18T06:29:58.684Z,14.70
2022-10-18T06:32:25.225Z,14.70
2022-10-18T06:34:51.669Z,14.60
2022-10-18T06:37:18.104Z,14.60
2022-10-18T06:39:44.503Z,14.60
2022-10-18T06:42:10.953Z,14.60
2022-10-18T06:44:37.439Z,14.60
2022-10-18T06:47:03.979Z,14.60
2022-10-18T06:49:30.420Z,14.50
2022-10-18T06:51:56.831Z,14.50
2022-10-18T06:54:23.258Z,14.50
2022-10-18T06:56:49.707Z,14.50
2022-10-18T06:59:16.271Z,14.50
2022-10-18T07:01:43.634Z,14.50
2022-10-18T07:04:10.146Z,14.40
2022-10-18T07:06:36.584Z,14.40
2022-10-18T07:09:03.895Z,14.40
2022-10-18T07:11:30.450Z,14.40
2022-10-18T07:14:03.020Z,14.40
2022-10-18T07:16:30.264Z,14.50
2022-10-18T07:18:56.763Z,14.50
2022-10-18T07:21:24.670Z,14.50
2022-10-18T07:23:51.597Z,14.50
2022-10-18T07:26:20.980Z,14.50
2022-10-18T07:28:48.659Z,14.60
2022-10-18T07:31:15.293Z,14.60
2022-10-18T07:33:43.088Z,14.70
2022-10-18T07:36:10.304Z,14.70
2022-10-18T07:38:36.809Z,14.70
2022-10-18T07:41:04.149Z,14.80
2022-10-18T07:43:30.655Z,14.90
2022-10-18T07:45:58.099Z,14.90
2022-10-18T07:48:24.971Z,14.90
2022-10-18T07:50:51.466Z,14.90
2022-10-18T07:53:17.914Z,15.00
2022-10-18T07:55:44.821Z,15.10
2022-10-18T07:58:11.482Z,15.10
2022-10-18T08:00:37.965Z,15.10
2022-10-18T08:03:04.392Z,15.10
2022-10-18T08:08:04.353Z,15.30
2022-10-18T08:10:34.763Z,15.30
2022-10-18T08:13:01.223Z,15.30
2022-10-18T08:15:27.697Z,15.50
2022-10-18T08:17:54.109Z,15.50
2022-10-18T08:20:30.567Z,15.60
2022-10-18T08:23:00.109Z,15.60
2022-10-18T08:25:27.318Z,15.70
2022-10-18T08:27:53.804Z,15.80
2022-10-18T08:30:20.349Z,15.80
2022-10-18T08:32:46.813Z,15.90
2022-10-18T08:35:13.259Z,16.00
2022-10-18T08:37:40.352Z,16.10
2022-10-18T08:40:07.209Z,16.20
2022-10-18T08:42:34.467Z,16.20
2022-10-18T08:45:08.266Z,16.30
2022-10-18T08:47:46.039Z,16.50
2022-10-18T08:50:15.279Z,16.60
2022-10-18T08:52:45.213Z,16.70
2022-10-18T08:55:14.513Z,16.70
2022-10-18T08:57:47.877Z,16.80
2022-10-18T09:00:30.571Z,16.90
2022-10-18T09:03:00.137Z,16.90
2022-10-18T09:05:44.793Z,17.00
2022-10-18T09:08:14.212Z,17.30
2022-10-18T09:10:40.752Z,17.40
2022-10-18T09:13:14.905Z,17.50
2022-10-18T09:15:54.869Z,17.50
2022-10-18T09:18:21.279Z,17.60
2022-10-18T09:20:56.501Z,17.50
2022-10-18T09:23:31.804Z,17.70
2022-10-18T09:26:18.593Z,17.60
2022-10-18T09:28:52.655Z,17.70
2022-10-18T09:31:22.422Z,17.90
2022-10-18T09:34:01.662Z,18.00
2022-10-18T09:36:35.417Z,18.10
2022-10-18T09:39:20.412Z,18.10
2022-10-18T09:41:52.951Z,18.30
2022-10-18T09:44:25.383Z,18.40
2022-10-18T09:47:00.530Z,18.50
2022-10-18T09:49:29.848Z,18.30
2022-10-18T09:51:57.271Z,18.40
2022-10-18T09:54:30.019Z,18.50
2022-10-18T09:57:04.197Z,18.70
2022-10-18T09:59:34.175Z,18.60
2022-10-18T10:02:00.762Z,18.60
2022-10-18T10:04:27.376Z,18.70
2022-10-18T10:06:54.965Z,18.90
2022-10-18T10:09:25.622Z,19.00
2022-10-18T10:11:52.493Z,19.00
2022-10-18T10:14:23.795Z,18.90
2022-10-18T10:16:56.263Z,18.80
2022-10-18T10:19:33.436Z,18.90
2022-10-18T10:22:09.963Z,18.90
2022-10-18T10:24:49.913Z,19.10
2022-10-18T10:27:28.477Z,19.20
2022-10-18T10:29:57.676Z,19.20
2022-10-18T10:34:54.921Z,19.20
2022-10-18T10:37:47.767Z,19.20
2022-10-18T10:40:20.444Z,19.20
2022-10-18T10:42:59.985Z,19.40
2022-10-18T10:45:37.028Z,19.40
2022-10-18T10:48:05.017Z,19.40
2022-10-18T10:50:31.793Z,19.60
2022-10-18T10:52:58.753Z,19.60
2022-10-18T10:55:35.155Z,19.80
2022-10-18T10:58:02.235Z,19.90
2022-10-18T11:00:46.575Z,20.10
2022-10-18T11:03:27.913Z,20.30
2022-10-18T11:05:57.774Z,20.40
2022-10-18T11:08:29.450Z,20.20
2022-10-18T11:11:02.872Z,20.30
2022-10-18T11:13:39.519Z,20.20
2022-10-18T11:16:10.110Z,20.30
2022-10-18T11:18:37.523Z,20.50
2022-10-18T11:21:07.903Z,20.50
2022-10-18T11:23:35.480Z,20.70
2022-10-18T11:26:10.770Z,20.70
2022-10-18T11:28:56.093Z,20.80
2022-10-18T11:31:40.946Z,20.90
2022-10-18T11:34:09.880Z,20.80
2022-10-18T11:37:09.720Z,20.90
2022-10-18T11:39:56.534Z,21.10
2022-10-18T11:42:22.927Z,21.10
2022-10-18T11:44:59.107Z,21.10
2022-10-18T11:47:28.305Z,21.30
2022-10-18T11:50:06.857Z,21.50
2022-10-18T11:52:39.474Z,21.50
2022-10-18T11:55:05.966Z,21.50
2022-10-18T11:57:41.743Z,21.50
2022-10-18T12:00:14.185Z,21.60
2022-10-18T12:02:46.569Z,21.70
2022-10-18T12:05:28.727Z,21.80
2022-10-18T12:08:05.366Z,21.90
2022-10-18T12:10:45.826Z,21.80
2022-10-18T12:13:23.315Z,21.80
2022-10-18T12:15:50.760Z,21.90
2022-10-18T12:18:18.543Z,21.90
2022-10-18T12:20:49.573Z,22.10
2022-10-18T12:23:17.583Z,22.10
2022-10-18T12:25:46.992Z,22.20
2022-10-18T12:28:36.802Z,22.20
2022-10-18T12:31:07.801Z,22.20
2022-10-18T12:33:42.712Z,22.20
2022-10-18T12:36:11.876Z,22.40
2022-10-18T12:38:40.892Z,22.30
2022-10-18T12:41:07.486Z,22.40
2022-10-18T12:43:36.895Z,22.50
2022-10-18T12:46:12.178Z,22.50
2022-10-18T12:48:45.258Z,22.50
2022-10-18T12:51:19.431Z,22.60
2022-10-18T12:54:06.092Z,22.60
2022-10-18T12:56:34.447Z,22.70
2022-10-18T12:59:16.140Z,22.70
2022-10-18T13:01:54.771Z,22.80
2022-10-18T13:04:27.346Z,22.80
2022-10-18T13:06:59.858Z,22.80
2022-10-18T13:09:30.312Z,22.80
2022-10-18T13:12:20.144Z,22.90
2022-10-18T13:14:59.062Z,22.90
2022-10-18T13:17:40.137Z,22.90
2022-10-18T13:20:25.142Z,22.90
2022-10-18T13:22:52.764Z,23.00
2022-10-18T13:25:31.818Z,23.10
2022-10-18T13:28:01.018Z,23.10
2022-10-18T13:30:33.179Z,23.10
2022-10-18T13:33:15.004Z,23.10
2022-10-18T13:35:44.143Z,23.10
2022-10-18T13:38:25.510Z,23.10
2022-10-18T13:41:05.786Z,23.10
2022-10-18T13:43:52.566Z,23.20
2022-10-18T13:46:19.329Z,23.20
2022-10-18T13:48:46.863Z,23.20
2022-10-18T13:51:13.310Z,23.20
2022-10-18T13:53:39.744Z,23.20
2022-10-18T13:56:24.106Z,23.20
2022-10-18T13:59:15.010Z,23.20
2022-10-18T14:01:44.985Z,23.20
2022-10-18T14:04:18.344Z,23.20
2022-10-18T14:06:46.229Z,23.30
2022-10-18T14:09:26.149Z,23.30
2022-10-18T14:12:13.542Z,23.30
2022-10-18T14:14:45.038Z,23.20
2022-10-18T14:17:16.890Z,23.30
2022-10-18T14:19:46.723Z,23.30
2022-10-18T14:22:13.130Z,23.30
2022-10-18T14:24:43.582Z,23.30
2022-10-18T14:27:16.597Z,23.30
2022-10-18T14:29:43.367Z,23.30
2022-10-18T14:32:11.310Z,23.30
2022-10-18T14:34:38.651Z,23.10
2022-10-18T14:37:05.865Z,23.20
2022-10-18T14:39:33.339Z,23.10
2022-10-18T14:41:59.859Z,23.10
2022-10-18T14:44:27.809Z,23.10
2022-10-18T14:47:00.274Z,23.10
2022-10-18T14:49:26.738Z,23.10
2022-10-18T14:51:54.764Z,23.10
2022-10-18T14:54:29.024Z,23.10
2022-10-18T14:56:58.892Z,23.10
2022-10-18T14:59:29.582Z,23.10
2022-10-18T15:02:05.198Z,23.10
2022-10-18T15:04:34.727Z,23.00
2022-10-18T15:07:08.439Z,23.00
2022-10-18T15:09:36.087Z,23.00
2022-10-18T15:12:04.840Z,23.00
2022-10-18T15:14:31.563Z,23.00
2022-10-18T15:17:30.673Z,23.00
2022-10-18T15:20:05.161Z,22.90
2022-10-18T15:22:33.686Z,22.90
2022-10-18T15:25:14.734Z,22.90
2022-10-18T15:27:44.895Z,22.90
2022-10-18T15:30:17.540Z,22.90
2022-10-18T15:33:00.396Z,22.80
2022-10-18T15:35:36.566Z,22.80
2022-10-18T15:38:21.251Z,22.80
2022-10-18T15:40:47.788Z,22.80
2022-10-18T15:43:23.275Z,22.80
2022-10-18T15:45:54.332Z,22.70
2022-10-18T15:48:23.030Z,22.70
2022-10-18T15:51:01.978Z,22.70
2022-10-18T15:53:37.177Z,22.70
2022-10-18T15:56:09.839Z,22.60
2022-10-18T15:58:48.991Z,22.60
2022-10-18T16:01:23.460Z,22.60
2022-10-18T16:03:51.361Z,22.50
2022-10-18T16:06:18.498Z,22.50
2022-10-18T16:08:49.507Z,22.50
2022-10-18T16:11:20.138Z,22.40
2022-10-18T16:13:46.678Z,22.40
2022-10-18T16:16:17.700Z,22.30
2022-10-18T16:18:44.232Z,22.30
2022-10-18T16:21:15.588Z,22.30
2022-10-18T16:23:42.023Z,22.20
2022-10-18T16:26:09.422Z,22.20
2022-10-18T16:28:36.041Z,22.10
2022-10-18T16:31:03.985Z,22.10
2022-10-18T16:33:30.974Z,22.10
2022-10-18T16:35:57.534Z,22.00
2022-10-18T16:38:37.009Z,22.00
2022-10-18T16:41:04.959Z,21.90
2022-10-18T16:43:31.732Z,21.80
2022-10-18T16:45:58.196Z,21.70
2022-10-18T16:48:24.975Z,21.70
2022-10-18T16:50:52.372Z,21.70
2022-10-18T16:53:23.144Z,21.60
2022-10-18T16:55:54.485Z,21.60
2022-10-18T17:00:48.201Z,21.50
2022-10-18T17:03:14.816Z,21.40
2022-10-18T17:05:41.576Z,21.40
2022-10-18T17:08:15.417Z,21.40
2022-10-18T17:10:44.871Z,21.30
2022-10-18T17:13:11.560Z,21.30
2022-10-18T17:15:38.525Z,21.20
2022-10-18T17:18:05.997Z,21.20
2022-10-18T17:20:32.417Z,21.10
2022-10-18T17:22:58.843Z,21.10
2022-10-18T17:25:25.314Z,21.00
2022-10-18T17:27:51.797Z,21.00
2022-10-18T17:30:18.308Z,20.90
2022-10-18T17:32:44.750Z,20.90
2022-10-18T17:35:12.204Z,20.80
2022-10-18T17:37:43.905Z,20.80
2022-10-18T17:40:12.472Z,20.80
2022-10-18T17:42:38.895Z,20.70
2022-10-18T17:45:05.733Z,20.70
2022-10-18T17:47:32.655Z,20.60
2022-10-18T17:49:59.294Z,20.60
2022-10-18T17:52:25.889Z,20.50
2022-10-18T17:54:52.434Z,20.50
2022-10-18T17:57:19.015Z,20.40
2022-10-18T17:59:46.956Z,20.40
2022-10-18T18:02:13.380Z,20.40
2022-10-18T18:04:39.793Z,20.30
2022-10-18T18:07:06.286Z,20.30
2022-10-18T18:09:32.848Z,20.20
2022-10-18T18:11:59.422Z,20.20
2022-10-18T18:14:25.932Z,20.10
2022-10-18T18:16:52.408Z,20.10
2022-10-18T18:19:22.127Z,20.00
2022-10-18T18:21:48.625Z,20.00
2022-10-18T18:24:15.695Z,19.90
2022-10-18T18:26:43.379Z,19.90
2022-10-18T18:29:11.515Z,19.90
2022-10-18T18:31:40.273Z,19.80
2022-10-18T18:34:09.558Z,19.80
2022-10-18T18:36:36.295Z,19.70
2022-10-18T18:39:04.649Z,19.70
2022-10-18T18:41:31.110Z,19.70
2022-10-18T18:43:58.974Z,19.60
2022-10-18T18:46:26.428Z,19.60
2022-10-18T18:48:53.092Z,19.60
2022-10-18T18:51:20.175Z,19.50
2022-10-18T18:53:47.153Z,19.50
2022-10-18T18:56:15.223Z,19.40
2022-10-18T18:58:45.151Z,19.40
2022-10-18T19:01:13.800Z,19.40
2022-10-18T19:03:40.697Z,19.30
2022-10-18T19:06:11.447Z,19.30
2022-10-18T19:08:38.856Z,19.30
2022-10-18T19:11:08.908Z,19.20
2022-10-18T19:13:35.949Z,19.20
2022-10-18T19:16:20.842Z,19.20
2022-10-18T19:19:06.385Z,19.10
2022-10-18T19:21:34.240Z,19.10
2022-10-18T19:24:00.925Z,19.10
2022-10-18T19:26:32.365Z,19.00
2022-10-18T19:29:07.111Z,19.00
2022-10-18T19:31:34.986Z,18.90
2022-10-18T19:34:05.754Z,18.90
2022-10-18T19:36:32.382Z,18.90
2022-10-18T19:38:58.863Z,18.90
2022-10-18T19:43:56.906Z,18.80
2022-10-18T19:46:23.902Z,18.80
2022-10-18T19:48:50.663Z,18.70
2022-10-18T19:51:20.945Z,18.70
2022-10-18T19:53:50.526Z,18.70
2022-10-18T19:56:18.645Z,18.60
2022-10-18T19:58:45.471Z,18.60
2022-10-18T20:01:11.994Z,18.60
2022-10-18T20:03:38.481Z,18.50
2022-10-18T20:06:05.020Z,18.50
2022-10-18T20:08:32.590Z,18.50
2022-10-18T20:11:03.473Z,18.50
2022-10-18T20:13:30.061Z,18.40
2022-10-18T20:15:56.506Z,18.40
2022-10-18T20:18:23.006Z,18.40
2022-10-18T20:20:49.624Z,18.30
2022-10-18T20:23:16.763Z,18.30
2022-10-18T20:25:43.739Z,18.30
2022-10-18T20:28:10.278Z,18.20
2022-10-18T20:30:36.743Z,18.20
2022-10-18T20:33:03.276Z,18.20
2022-10-18T20:35:29.654Z,18.10
2022-10-18T20:37:56.067Z,18.10
2022-10-18T20:40:22.495Z,18.10
2022-10-18T20:42:51.150Z,18.10
2022-10-18T20:45:17.661Z,18.00
2022-10-18T20:47:44.100Z,18.00
2022-10-18T20:50:10.728Z,18.00
2022-10-18T20:52:37.172Z,17.90
2022-10-18T20:55:03.928Z,17.90
2022-10-18T20:57:34.159Z,17.90
2022-10-18T21:00:02.933Z,17.90
2022-10-18T21:02:29.355Z,17.80
2022-10-18T21:04:55.756Z,17.80
2022-10-18T21:07:22.214Z,17.80
2022-10-18T21:09:48.678Z,17.70
2022-10-18T21:12:15.268Z,17.70
2022-10-18T21:14:41.659Z,17.70
2022-10-18T21:17:08.108Z,17.70
2022-10-18T21:19:34.661Z,17.60
2022-10-18T21:22:01.110Z,17.60
2022-10-18T21:24:27.704Z,17.60
2022-10-18T21:26:54.679Z,17.60
2022-10-18T21:29:22.790Z,17.60
2022-10-18T21:31:52.112Z,17.50
2022-10-18T21:34:18.576Z,17.50
2022-10-18T21:36:46.155Z,17.50
2022-10-18T21:39:14.899Z,17.40
2022-10-18T21:41:42.628Z,17.40
2022-10-18T21:44:10.797Z,17.40
2022-10-18T21:46:39.179Z,17.30
2022-10-18T21:49:06.034Z,17.30
2022-10-18T21:51:32.449Z,17.30
2022-10-18T21:53:58.939Z,17.30
2022-10-18T21:56:29.859Z,17.20
2022-10-18T21:58:56.825Z,17.20
2022-10-18T22:01:23.390Z,17.20
2022-10-18T22:03:50.910Z,17.20
2022-10-18T22:06:17.659Z,17.10
2022-10-18T22:08:45.634Z,17.10
2022-10-18T22:11:12.743Z,17.10
2022-10-18T22:13:39.219Z,17.00
2022-10-18T22:16:06.356Z,17.00
2022-10-18T22:18:33.218Z,17.00
2022-10-18T22:21:00.810Z,17.00
2022-10-18T22:23:33.819Z,17.00
2022-10-18T22:26:07.961Z,16.90
2022-10-18T22:28:35.186Z,16.90
2022-10-18T22:31:01.868Z,16.90
2022-10-18T22:33:28.405Z,16.80
2022-10-18T22:35:54.869Z,16.80
2022-10-18T22:38:21.338Z,16.80
2022-10-18T22:40:47.856Z,16.80
2022-10-18T22:43:14.258Z,16.80
2022-10-18T22:45:40.892Z,16.70
2022-10-18T22:48:07.406Z,16.70
2022-10-18T22:50:33.834Z,16.70
2022-10-18T22:53:00.271Z,16.70
2022-10-18T22:55:26.670Z,16.70
2022-10-18T22:57:54.940Z,16.60
2022-10-18T23:00:21.374Z,16.60
2022-10-18T23:02:49.223Z,16.60
2022-10-18T23:05:15.811Z,16.60
2022-10-18T23:07:42.214Z,16.60
2022-10-18T23:10:08.691Z,16.50
2022-10-18T23:12:35.327Z,16.50
2022-10-18T23:15:01.965Z,16.50
2022-10-18T23:17:28.401Z,16.50
2022-10-18T23:19:54.818Z,16.50
2022-10-18T23:22:21.383Z,16.40
2022-10-18T23:24:47.800Z,16.40
2022-10-18T23:27:14.322Z,16.40
2022-10-18T23:29:40.730Z,16.40
2022-10-18T23:32:08.902Z,16.40
2022-10-18T23:34:35.353Z,16.30
2022-10-18T23:37:01.733Z,16.30
2022-10-18T23:39:28.118Z,16.30
2022-10-18T23:41:54.564Z,16.30
2022-10-18T23:44:20.995Z,16.30
2022-10-18T23:46:47.374Z,16.20
2022-10-18T23:49:13.896Z,16.20
2022-10-18T23:51:40.296Z,16.20
2022-10-18T23:54:06.723Z,16.20
2022-10-18T23:56:33.180Z,16.20
2022-10-18T23:58:59.584Z,16.10
